Time;durP1;ratioP1;P1;durP2;ratioP2;P2;SDS_P1;SDS_P2;PMS_P1;PMS_P2;Temp;Humidity;BMP_temperature;BMP_pressure;BME280_temperature;BME280_humidity;BME280_pressure;Samples;Min_cycle;Max_cycle;Signal;HPM_P1;HPM_P2
2022/02/11 00:00:50;;;;;;;9.90;5.90;;;;;;;4.71;87.58;99195.75;5004649;28;20715;-74
2022/02/11 00:08:17;;;;;;;9.68;4.43;;;;;;;4.98;83.89;99194.78;5011659;28;20190;-74
2022/02/11 00:10:42;;;;;;;10.57;4.80;;;;;;;5.17;83.37;99220.53;5010005;28;20109;-74
2022/02/11 00:13:07;;;;;;;11.07;4.95;;;;;;;5.22;83.74;99215.56;5010812;28;20108;-74
2022/02/11 00:18:06;;;;;;;9.30;5.10;;;;;;;5.27;81.66;99210.56;5016905;28;20180;-75
2022/02/11 00:20:31;;;;;;;9.05;5.25;;;;;;;5.21;82.08;99184.34;5009094;28;20026;-74
2022/02/11 00:22:57;;;;;;;11.73;6.18;;;;;;;5.21;81.74;99185.22;5008788;28;20026;-75
2022/02/11 00:25:22;;;;;;;9.13;4.90;;;;;;;5.40;81.11;99202.91;5010370;28;20523;-75
2022/02/11 00:37:55;;;;;;;8.95;3.85;;;;;;;5.49;79.15;99191.19;5024278;28;20431;-74
2022/02/11 00:46:15;;;;;;;8.95;3.85;;;;;;;5.59;78.73;99203.66;5015565;28;20288;-73
2022/02/11 01:04:23;;;;;;;8.68;3.85;;;;;;;5.51;77.90;99183.00;5015079;28;20549;-75
2022/02/11 01:06:48;;;;;;;6.57;3.60;;;;;;;5.49;77.82;99183.13;5017451;28;20018;-74
2022/02/11 01:09:14;;;;;;;7.15;3.85;;;;;;;5.60;77.23;99202.63;5014945;28;20088;-74
2022/02/11 01:11:53;;;;;;;10.23;3.83;;;;;;;5.57;77.31;99197.59;5013139;28;20546;-74
2022/02/11 01:14:21;;;;;;;;;;;;;;;5.55;76.98;99191.53;5015343;28;20109;-74
2022/02/11 01:16:52;;;;;;;7.97;3.63;;;;;;;5.56;76.88;99190.56;5009770;28;20303;-74
2022/02/11 01:19:30;;;;;;;8.60;3.47;;;;;;;5.57;76.83;99194.91;5012874;28;20034;-74
2022/02/11 01:22:09;;;;;;;7.95;3.15;;;;;;;5.51;76.61;99201.78;5012077;28;20030;-74
2022/02/11 01:32:37;;;;;;;7.13;4.00;;;;;;;4.93;78.38;99130.91;5007335;28;20084;-74
2022/02/11 01:35:21;;;;;;;7.32;3.60;;;;;;;5.24;79.13;99184.06;4998635;28;20033;-73
2022/02/11 01:50:38;;;;;;;8.27;4.10;;;;;;;4.82;83.68;99179.41;5004295;28;20030;-74
2022/02/11 02:01:30;;;;;;;10.80;4.55;;;;;;;4.91;86.75;99189.22;5013869;28;20626;-74
2022/02/11 02:24:55;;;;;;;10.30;4.80;;;;;;;4.63;93.45;99193.84;5007766;28;20525;-73
2022/02/11 02:27:37;;;;;;;9.20;4.50;;;;;;;4.58;94.02;99194.34;4995448;28;20379;-74
2022/02/11 02:36:01;;;;;;;6.90;4.30;;;;;;;4.32;95.45;99180.03;5014159;28;20176;-74
2022/02/11 02:57:03;;;;;;;8.23;4.82;;;;;;;4.05;100.00;99210.41;5010445;28;20087;-74
2022/02/11 03:02:04;;;;;;;9.50;4.57;;;;;;;4.03;100.00;99220.44;5012976;28;20507;-74
2022/02/11 03:34:57;;;;;;;2.05;1.30;;;;;;;2.83;100.00;99288.88;5044524;28;20036;-76
2022/02/11 04:56:41;;;;;;;3.40;2.42;;;;;;;2.31;100.00;99483.22;5046797;28;20068;-74
2022/02/11 05:01:51;;;;;;;3.70;2.50;;;;;;;2.30;100.00;99486.84;5049043;28;20411;-79
2022/02/11 05:04:17;;;;;;;4.00;2.20;;;;;;;2.22;100.00;99476.00;5030787;28;20029;-77
2022/02/11 05:06:42;;;;;;;4.10;2.38;;;;;;;2.16;100.00;99481.88;5036638;28;20052;-77
2022/02/11 05:09:07;;;;;;;4.65;1.95;;;;;;;2.11;100.00;99481.44;5035935;28;20040;-82
2022/02/11 05:11:33;;;;;;;2.90;2.08;;;;;;;2.09;100.00;99507.41;5042072;28;20048;-77
2022/02/11 05:13:58;;;;;;;3.85;2.10;;;;;;;2.11;100.00;99503.63;5032680;28;20075;-77
2022/02/11 05:16:24;;;;;;;3.08;1.90;;;;;;;2.11;100.00;99532.16;5025438;28;20022;-74
2022/02/11 05:18:49;;;;;;;3.50;2.05;;;;;;;2.00;100.00;99508.22;5025833;28;20108;-76
2022/02/11 05:21:15;;;;;;;3.08;1.95;;;;;;;1.87;100.00;99490.56;5020959;28;20112;-80
2022/02/11 05:23:40;;;;;;;5.43;2.67;;;;;;;2.07;100.00;99522.69;5030903;28;20026;-77
2022/02/11 05:26:05;;;;;;;6.07;3.00;;;;;;;2.00;100.00;99532.22;5021875;28;20068;-74
2022/02/11 05:28:31;;;;;;;3.47;2.00;;;;;;;2.05;100.00;99541.53;5023445;28;20080;-77
2022/02/11 05:30:56;;;;;;;2.78;1.73;;;;;;;1.96;100.00;99527.16;5021831;28;20382;-77
2022/02/11 05:33:23;;;;;;;3.30;2.10;;;;;;;1.98;100.00;99541.19;5030891;28;20030;-75
2022/02/11 05:35:48;;;;;;;4.25;2.25;;;;;;;1.92;100.00;99546.22;5021540;28;20018;-75
2022/02/11 05:38:14;;;;;;;4.03;2.17;;;;;;;1.73;100.00;99533.59;5045076;28;20025;-76
2022/02/11 05:40:40;;;;;;;4.30;2.17;;;;;;;1.71;100.00;99525.72;5033270;28;20013;-76
2022/02/11 05:43:05;;;;;;;3.17;2.00;;;;;;;1.66;100.00;99537.75;5038593;28;20074;-78
2022/02/11 05:45:30;;;;;;;3.85;2.22;;;;;;;1.67;100.00;99555.44;5027934;28;20095;-77
2022/02/11 05:47:56;;;;;;;4.07;2.22;;;;;;;1.61;100.00;99532.78;5025892;28;20021;-77
2022/02/11 05:50:21;;;;;;;2.78;1.80;;;;;;;1.86;100.00;99584.06;5024410;28;20045;-77
2022/02/11 05:52:47;;;;;;;4.40;2.08;;;;;;;1.84;100.00;99591.38;5026592;28;20037;-77
2022/02/11 05:55:12;;;;;;;6.60;2.38;;;;;;;1.61;100.00;99567.47;5031483;28;20017;-77
2022/02/11 05:57:37;;;;;;;6.30;2.00;;;;;;;1.73;100.00;99584.28;5026888;28;20028;-77
2022/02/11 06:00:05;;;;;;;4.85;2.38;;;;;;;1.65;100.00;99570.72;5027337;28;20100;-77
2022/02/11 06:02:30;;;;;;;4.03;2.50;;;;;;;1.71;100.00;99594.22;5023905;28;20021;-77
2022/02/11 06:04:56;;;;;;;6.40;2.55;;;;;;;1.67;100.00;99595.44;5026501;28;20024;-76
2022/02/11 06:07:21;;;;;;;4.05;2.88;;;;;;;1.78;100.00;99618.56;5025115;28;20109;-75
2022/02/11 06:09:46;;;;;;;4.90;2.70;;;;;;;1.77;100.00;99636.41;5023355;28;20021;-76
2022/02/11 06:12:12;;;;;;;4.95;2.67;;;;;;;1.72;100.00;99638.59;5013381;28;20018;-78
2022/02/11 06:14:38;;;;;;;3.88;2.67;;;;;;;1.74;100.00;99656.16;5029032;28;20034;-79
2022/02/11 06:17:04;;;;;;;4.75;2.85;;;;;;;1.61;100.00;99630.63;5030853;28;20458;-75
2022/02/11 06:19:39;;;;;;;4.03;2.47;;;;;;;1.63;100.00;99631.38;5041926;28;20364;-80
2022/02/11 06:22:04;;;;;;;6.05;3.33;;;;;;;1.60;100.00;99642.25;5030086;28;20025;-80
2022/02/11 06:24:30;;;;;;;6.60;3.20;;;;;;;1.40;100.00;99636.75;5037388;28;20070;-78
2022/02/11 06:26:56;;;;;;;10.27;3.50;;;;;;;1.26;100.00;99645.84;5028313;28;20025;-76
2022/02/11 06:29:21;;;;;;;5.57;3.33;;;;;;;1.24;100.00;99637.13;5029756;28;20044;-77
2022/02/11 06:31:48;;;;;;;9.45;3.72;;;;;;;1.20;100.00;99650.81;5025323;28;20109;-81
2022/02/11 06:34:13;;;;;;;7.40;4.30;;;;;;;1.38;100.00;99669.81;5034055;28;20021;-80
2022/02/11 06:36:38;;;;;;;7.53;3.60;;;;;;;1.57;100.00;99685.19;5030290;28;20029;-80
2022/02/11 06:39:04;;;;;;;6.45;4.22;;;;;;;1.51;100.00;99671.38;5016286;28;20025;-78
2022/02/11 06:41:29;;;;;;;8.68;4.00;;;;;;;1.66;100.00;99684.44;5028587;28;20052;-78
2022/02/11 06:43:54;;;;;;;10.93;4.00;;;;;;;1.57;100.00;99663.84;5025028;28;20096;-79
2022/02/11 06:46:21;;;;;;;5.70;3.38;;;;;;;1.75;100.00;99692.53;5024422;28;20049;-74
2022/02/11 06:48:48;;;;;;;5.38;2.85;;;;;;;1.93;100.00;99713.34;5021010;28;22197;-76
2022/02/11 06:51:13;;;;;;;8.07;3.17;;;;;;;1.90;100.00;99697.59;5019677;28;20022;-76
2022/02/11 06:53:39;;;;;;;4.53;2.78;;;;;;;2.00;100.00;99701.22;5037183;28;20104;-81
2022/02/11 06:56:04;;;;;;;6.90;3.45;;;;;;;1.88;100.00;99699.53;5033594;28;20497;-81
2022/02/11 06:58:29;;;;;;;5.43;2.85;;;;;;;1.81;100.00;99683.19;5045113;28;20368;-74
2022/02/11 07:00:55;;;;;;;9.98;2.83;;;;;;;1.90;100.00;99706.44;5019079;28;20021;-75
2022/02/11 07:09:00;;;;;;;5.47;2.97;;;;;;;1.89;100.00;99720.78;4989394;28;20042;-78
2022/02/11 07:11:26;;;;;;;7.65;3.50;;;;;;;2.06;100.00;99763.91;4994578;28;20038;-75
2022/02/11 07:13:54;;;;;;;5.72;3.08;;;;;;;2.00;100.00;99765.25;4999802;28;20037;-81
2022/02/11 07:16:19;;;;;;;4.68;2.88;;;;;;;2.03;100.00;99758.81;4989356;28;20041;-77
2022/02/11 07:18:45;;;;;;;10.57;3.08;;;;;;;2.04;100.00;99761.34;4989369;28;20034;-76
2022/02/11 07:21:10;;;;;;;6.95;3.75;;;;;;;1.86;100.00;99731.69;4989607;28;20061;-76
2022/02/11 07:23:35;;;;;;;6.03;2.88;;;;;;;2.16;100.00;99789.72;4990911;28;20097;-76
2022/02/11 07:26:01;;;;;;;5.70;2.80;;;;;;;2.14;100.00;99789.00;4990985;28;20033;-76
2022/02/11 07:28:26;;;;;;;9.85;3.10;;;;;;;2.23;100.00;99786.53;4982170;28;20019;-77
2022/02/11 07:30:51;;;;;;;14.20;5.45;;;;;;;2.30;100.00;99779.72;4980393;28;20391;-74
2022/02/11 07:33:18;;;;;;;8.90;4.13;;;;;;;2.54;100.00;99819.56;4986946;28;20034;-76
2022/02/11 07:35:44;;;;;;;5.40;3.10;;;;;;;2.49;100.00;99816.44;4989932;28;20023;-80
2022/02/11 07:38:10;;;;;;;5.53;3.50;;;;;;;2.30;100.00;99807.28;4992117;28;20109;-78
2022/02/11 07:40:42;;;;;;;7.28;3.53;;;;;;;2.38;100.00;99820.88;5012058;28;20460;-77
2022/02/11 07:43:08;;;;;;;5.82;3.80;;;;;;;2.55;100.00;99838.16;4990373;28;20424;-76
2022/02/11 07:45:34;;;;;;;6.45;3.75;;;;;;;2.61;99.88;99859.00;4985164;28;20022;-73
2022/02/11 07:48:00;;;;;;;8.27;4.25;;;;;;;2.49;100.00;99840.47;4992106;28;20510;-74
2022/02/11 07:50:25;;;;;;;8.45;4.18;;;;;;;2.67;100.00;99846.13;4997633;28;20113;-74
2022/02/11 07:52:51;;;;;;;6.15;2.67;;;;;;;3.01;98.88;99855.72;4990864;28;20033;-74
2022/02/11 07:55:17;;;;;;;3.55;2.42;;;;;;;3.42;96.29;99872.72;5000131;28;20112;-74
2022/02/11 07:57:42;;;;;;;7.03;2.30;;;;;;;4.52;90.14;99853.28;4994986;28;20037;-74
2022/02/11 08:00:08;;;;;;;5.00;1.85;;;;;;;6.65;76.32;99862.63;4988969;28;20027;-74
2022/02/11 08:02:36;;;;;;;5.60;1.77;;;;;;;6.47;72.87;99869.81;4985849;28;20033;-72
2022/02/11 08:05:03;;;;;;;4.13;1.90;;;;;;;5.56;78.07;99878.53;4985677;28;20578;-71
2022/02/11 08:07:28;;;;;;;6.75;2.50;;;;;;;4.37;84.39;99868.91;4990458;28;20506;-74
2022/02/11 08:09:53;;;;;;;4.75;1.90;;;;;;;4.18;87.09;99902.69;4983810;28;20026;-74
2022/02/11 08:12:19;;;;;;;5.00;2.53;;;;;;;3.38;90.54;99883.81;4988366;28;20066;-73
2022/02/11 08:14:45;;;;;;;4.47;1.90;;;;;;;3.41;92.00;99904.97;4993357;28;20045;-76
2022/02/11 08:17:10;;;;;;;4.28;2.20;;;;;;;3.37;91.93;99895.50;4996643;28;20038;-76
2022/02/11 08:19:36;;;;;;;3.65;1.83;;;;;;;3.32;91.28;99884.34;4993256;28;20023;-73
2022/02/11 08:22:01;;;;;;;7.13;1.92;;;;;;;3.58;91.42;99924.94;4994917;28;20041;-74
2022/02/11 08:24:42;;;;;;;4.07;1.90;;;;;;;3.58;89.73;99920.44;4985408;28;20377;-78
2022/02/11 08:27:18;;;;;;;2.85;1.70;;;;;;;3.71;88.62;99910.34;4993568;28;20073;-80
2022/02/11 08:29:45;;;;;;;3.38;2.13;;;;;;;4.52;84.64;99913.09;5014897;28;20026;-77
2022/02/11 08:32:11;;;;;;;5.03;2.45;;;;;;;5.79;76.91;99916.63;4995474;28;20026;-72
2022/02/11 08:34:39;;;;;;;5.22;1.95;;;;;;;7.36;70.81;99893.22;4998106;28;20033;-73
2022/02/11 08:37:04;;;;;;;8.32;1.73;;;;;;;9.38;60.61;99919.59;4997465;28;20029;-75
2022/02/11 08:39:33;;;;;;;6.38;2.17;;;;;;;10.01;60.41;99915.31;4991437;28;20022;-75
2022/02/11 08:41:58;;;;;;;4.28;1.20;;;;;;;11.67;54.40;99920.53;4984655;28;20022;-75
2022/02/11 08:44:24;;;;;;;2.28;1.20;;;;;;;11.91;52.88;99936.59;4990440;28;20033;-74
2022/02/11 08:46:49;;;;;;;2.85;1.58;;;;;;;10.77;53.72;99926.53;4995322;28;20586;-74
2022/02/11 08:49:15;;;;;;;3.80;1.98;;;;;;;11.82;52.03;99926.81;4987405;28;20081;-75
2022/02/11 08:51:40;;;;;;;4.93;1.55;;;;;;;11.11;51.71;99943.28;5000752;28;20428;-76
2022/02/11 08:54:07;;;;;;;3.40;2.05;;;;;;;10.15;53.80;99955.16;4993708;28;20061;-70
2022/02/11 08:56:33;;;;;;;3.30;1.67;;;;;;;12.34;50.03;99969.41;4985208;28;20084;-72
2022/02/11 08:58:58;;;;;;;7.30;1.50;;;;;;;11.34;51.16;99966.84;4979727;28;20384;-71
2022/02/11 09:01:23;;;;;;;5.10;1.90;;;;;;;11.58;49.38;99961.25;4999732;28;20041;-71
2022/02/11 09:03:49;;;;;;;6.30;1.77;;;;;;;13.05;46.94;99941.72;4989413;28;20112;-74
2022/02/11 09:06:18;;;;;;;2.75;1.50;;;;;;;13.38;45.34;99966.53;5003494;28;20046;-80
2022/02/11 09:08:43;;;;;;;4.03;1.50;;;;;;;14.88;43.09;99927.22;5038222;23;20100;-75
2022/02/11 09:11:09;;;;;;;5.13;1.67;;;;;;;13.94;44.76;99982.16;5010826;28;20038;-73
2022/02/11 09:13:34;;;;;;;6.22;1.70;;;;;;;14.11;42.87;99969.94;5007993;28;20032;-70
2022/02/11 09:16:00;;;;;;;7.20;1.58;;;;;;;10.83;51.25;99975.41;5006351;28;20053;-73
2022/02/11 09:18:27;;;;;;;6.95;1.83;;;;;;;12.54;48.30;99983.22;5015497;28;20088;-72
2022/02/11 09:20:53;;;;;;;5.28;1.70;;;;;;;13.73;44.88;99967.53;5010813;28;20034;-73
2022/02/11 09:23:20;;;;;;;5.65;1.50;;;;;;;13.34;43.87;99989.72;5015254;28;20491;-74
2022/02/11 09:25:45;;;;;;;5.95;1.48;;;;;;;13.10;44.57;99955.56;5012507;28;20029;-75
2022/02/11 09:28:11;;;;;;;2.97;1.52;;;;;;;11.93;46.42;99958.94;5008702;28;20026;-76
2022/02/11 09:30:37;;;;;;;4.05;1.73;;;;;;;13.23;44.36;99992.88;5009159;28;20030;-76
2022/02/11 09:33:02;;;;;;;6.47;1.35;;;;;;;11.28;47.48;99981.09;5009118;28;20037;-72
2022/02/11 09:35:28;;;;;;;4.45;1.83;;;;;;;10.74;48.63;100006.22;5009444;28;20022;-77
2022/02/11 09:37:54;;;;;;;9.07;2.03;;;;;;;12.34;47.23;100015.53;5011228;28;20168;-74
2022/02/11 09:40:20;;;;;;;5.65;1.50;;;;;;;13.42;44.44;100008.63;5002746;28;20483;-74
2022/02/11 09:42:45;;;;;;;5.93;1.60;;;;;;;14.57;41.56;100002.13;5013774;28;20037;-80
2022/02/11 09:45:14;;;;;;;5.40;1.85;;;;;;;13.12;44.19;100016.81;5006394;28;20041;-75
2022/02/11 09:47:40;;;;;;;5.00;1.70;;;;;;;11.01;47.96;100026.63;5000808;28;20026;-71
2022/02/11 09:50:06;;;;;;;5.25;2.00;;;;;;;10.96;50.30;100029.00;4999377;28;20026;-75
2022/02/11 09:52:39;;;;;;;7.18;2.10;;;;;;;11.44;48.21;100032.47;5011478;28;20045;-73
2022/02/11 09:57:50;;;;;;;8.07;2.10;;;;;;;11.95;45.35;100016.56;5002558;28;20085;-74
2022/02/11 10:00:16;;;;;;;4.93;1.65;;;;;;;12.83;43.74;100005.97;5001159;28;20480;-74
2022/02/11 10:03:15;;;;;;;5.93;1.80;;;;;;;13.77;42.89;100041.41;4999835;28;20115;-74
2022/02/11 10:05:40;;;;;;;5.35;1.80;;;;;;;11.84;46.64;100014.22;5005594;28;20432;-74
2022/02/11 10:08:06;;;;;;;4.75;1.40;;;;;;;10.72;49.20;100049.75;5006894;28;20026;-74
2022/02/11 10:10:48;;;;;;;7.68;1.83;;;;;;;9.63;50.77;100033.91;5012247;28;20045;-74
2022/02/11 10:13:28;;;;;;;6.90;2.08;;;;;;;10.48;50.09;100058.75;5012137;28;20029;-74
2022/02/11 10:15:59;;;;;;;6.57;2.08;;;;;;;10.77;49.15;100045.66;5006681;28;20033;-74
2022/02/11 10:18:31;;;;;;;7.15;1.83;;;;;;;10.30;50.83;100061.66;5011261;28;20107;-74
2022/02/11 10:21:01;;;;;;;6.45;1.52;;;;;;;11.21;49.30;100058.69;5009905;28;20077;-74
2022/02/11 10:23:32;;;;;;;4.63;1.45;;;;;;;9.04;53.27;100069.03;5005322;28;20105;-73
2022/02/11 10:26:13;;;;;;;5.80;1.70;;;;;;;9.09;54.14;100055.03;5014687;28;20037;-74
2022/02/11 10:28:49;;;;;;;3.65;1.42;;;;;;;8.72;53.97;100054.38;5006809;28;20021;-71
2022/02/11 10:31:20;;;;;;;5.80;1.52;;;;;;;8.92;54.45;100081.13;5007850;28;20037;-73
2022/02/11 10:34:11;;;;;;;5.82;1.50;;;;;;;8.78;54.74;100079.88;5012749;28;20091;-74
2022/02/11 10:36:38;;;;;;;5.90;1.45;;;;;;;8.44;56.05;100079.84;5012527;28;20076;-73
2022/02/11 10:39:15;;;;;;;2.70;1.33;;;;;;;7.28;57.92;100095.88;5014404;28;20029;-73
2022/02/11 10:41:46;;;;;;;9.35;1.80;;;;;;;6.93;59.13;100083.19;5009992;28;20058;-73
2022/02/11 10:44:12;;;;;;;3.22;1.50;;;;;;;7.04;59.83;100104.50;5013535;28;20036;-73
2022/02/11 10:46:44;;;;;;;8.48;1.75;;;;;;;7.09;59.77;100078.00;5009807;28;20021;-74
2022/02/11 10:49:11;;;;;;;5.80;1.88;;;;;;;7.21;60.48;100114.50;5009048;28;20491;-74
2022/02/11 10:51:42;;;;;;;6.57;2.10;;;;;;;6.99;61.33;100104.13;5006916;28;20034;-70
2022/02/11 10:54:28;;;;;;;8.93;2.35;;;;;;;6.08;62.31;100099.28;5000755;28;20026;-76
2022/02/11 10:56:57;;;;;;;5.78;1.95;;;;;;;5.92;64.00;100102.50;5012118;28;20029;-78
2022/02/11 10:59:33;;;;;;;5.13;1.70;;;;;;;5.58;65.41;100090.44;5007255;28;20018;-79
2022/02/11 11:02:01;;;;;;;4.85;1.52;;;;;;;5.66;65.62;100107.56;5005823;28;20031;-71
2022/02/11 11:04:27;;;;;;;4.97;1.55;;;;;;;5.53;65.66;100095.38;5012032;28;20030;-72
2022/02/11 11:06:53;;;;;;;6.82;1.73;;;;;;;5.61;65.63;100098.25;5012545;28;20025;-76
2022/02/11 11:09:20;;;;;;;6.22;2.08;;;;;;;5.13;66.99;100093.59;5006791;28;20088;-74
2022/02/11 11:11:46;;;;;;;9.93;2.13;;;;;;;5.08;68.27;100107.41;5004116;28;20025;-78
2022/02/11 11:14:15;;;;;;;5.25;1.90;;;;;;;5.12;69.08;100103.50;5012554;28;20498;-71
2022/02/11 11:16:41;;;;;;;7.28;1.77;;;;;;;5.55;68.82;100093.41;5012514;28;20030;-73
2022/02/11 11:19:07;;;;;;;7.10;2.08;;;;;;;5.60;67.48;100094.69;5009725;28;20022;-73
2022/02/11 11:21:39;;;;;;;7.68;1.95;;;;;;;5.56;67.91;100076.34;5005609;28;21027;-73
2022/02/11 11:24:05;;;;;;;5.43;2.08;;;;;;;5.70;65.78;100089.34;5006277;28;20502;-73
2022/02/11 11:26:39;;;;;;;6.43;1.70;;;;;;;5.44;66.40;100111.34;5000387;28;20034;-73
2022/02/11 11:29:08;;;;;;;6.38;2.00;;;;;;;5.77;66.89;100103.06;4998196;28;20017;-73
2022/02/11 11:31:35;;;;;;;5.78;1.65;;;;;;;5.96;67.01;100113.81;5010846;28;20034;-73
2022/02/11 11:34:15;;;;;;;10.23;2.30;;;;;;;5.87;66.15;100114.66;5016098;28;20060;-74
2022/02/11 11:36:46;;;;;;;9.15;1.83;;;;;;;5.67;65.36;100128.06;5020707;28;20044;-73
2022/02/11 11:39:12;;;;;;;4.68;1.63;;;;;;;5.18;67.22;100126.22;4999320;28;20113;-71
2022/02/11 11:41:38;;;;;;;4.40;1.88;;;;;;;5.39;66.78;100129.69;5008898;28;20122;-71
2022/02/11 11:44:24;;;;;;;5.95;1.90;;;;;;;5.35;66.72;100120.22;4995045;28;20026;-71
2022/02/11 11:47:00;;;;;;;9.65;1.98;;;;;;;5.44;67.26;100129.28;5005575;28;20050;-71
2022/02/11 11:49:26;;;;;;;4.68;1.88;;;;;;;5.43;66.78;100108.81;5009726;28;20044;-71
2022/02/11 11:51:54;;;;;;;2.65;1.55;;;;;;;5.36;66.00;100126.44;5003462;28;20519;-71
2022/02/11 11:54:22;;;;;;;5.57;2.08;;;;;;;5.36;66.41;100115.69;5001446;28;20065;-71
2022/02/11 11:56:55;;;;;;;5.82;1.75;;;;;;;5.63;65.07;100131.13;5010214;28;20021;-79
2022/02/11 11:59:30;;;;;;;5.05;2.05;;;;;;;5.78;65.34;100131.59;5029616;28;20632;-72
2022/02/11 12:01:56;;;;;;;2.88;1.55;;;;;;;5.56;65.05;100132.72;4998598;28;20077;-71
2022/02/11 12:04:23;;;;;;;4.75;1.33;;;;;;;5.86;64.48;100108.41;5007573;28;20042;-72
2022/02/11 12:06:57;;;;;;;5.38;2.15;;;;;;;5.81;64.66;100117.88;5002225;28;20026;-72
2022/02/11 12:09:24;;;;;;;5.68;1.88;;;;;;;6.19;63.96;100118.91;5009577;28;20058;-72
2022/02/11 12:11:59;;;;;;;7.85;1.88;;;;;;;7.07;62.46;100112.28;5010454;28;20121;-72
2022/02/11 12:14:26;;;;;;;5.30;1.73;;;;;;;7.29;59.87;100097.59;5011149;28;20022;-71
2022/02/11 12:16:53;;;;;;;5.57;2.40;;;;;;;7.17;60.64;100088.03;5011146;28;20033;-73
2022/02/11 12:19:18;;;;;;;5.68;1.40;;;;;;;6.96;60.62;100096.34;5010243;28;20025;-74
2022/02/11 12:21:43;;;;;;;3.50;1.80;;;;;;;6.76;60.98;100117.09;5004423;28;20028;-73
2022/02/11 12:29:57;;;;;;;4.90;1.85;;;;;;;6.04;63.74;100105.06;5003602;28;20052;-70
2022/02/11 12:32:27;;;;;;;9.65;1.70;;;;;;;7.10;61.14;100111.13;5007953;28;20100;-69
2022/02/11 12:34:57;;;;;;;4.72;1.40;;;;;;;7.58;57.74;100107.34;5003101;28;20034;-70
2022/02/11 12:37:25;;;;;;;7.60;1.60;;;;;;;7.58;58.65;100093.88;5013458;28;20052;-71
2022/02/11 12:40:05;;;;;;;4.07;1.55;;;;;;;7.00;58.46;100038.56;5012103;28;20109;-74
2022/02/11 12:42:32;;;;;;;2.55;1.38;;;;;;;8.67;55.63;100099.88;5005785;28;20125;-74
2022/02/11 12:44:58;;;;;;;3.13;1.67;;;;;;;9.37;53.60;100102.38;5007929;28;20558;-72
2022/02/11 12:47:23;;;;;;;7.15;1.95;;;;;;;9.85;51.64;100095.44;5007397;28;20049;-71
2022/02/11 12:49:51;;;;;;;3.90;1.65;;;;;;;9.30;51.10;100098.66;5006620;28;20025;-71
2022/02/11 12:52:25;;;;;;;3.20;1.60;;;;;;;9.85;51.20;100091.84;4994261;28;20054;-71
2022/02/11 12:55:05;;;;;;;3.10;1.40;;;;;;;9.63;51.87;100098.75;4999323;28;20017;-73
2022/02/11 12:57:32;;;;;;;4.18;1.35;;;;;;;9.38;52.76;100098.69;5010432;28;20025;-73
2022/02/11 12:59:58;;;;;;;9.45;1.60;;;;;;;8.60;54.56;100077.25;5011459;28;20363;-73
2022/02/11 13:02:31;;;;;;;3.90;1.27;;;;;;;9.96;51.90;100091.56;5013859;28;20107;-73
2022/02/11 13:05:10;;;;;;;4.53;1.70;;;;;;;8.82;53.55;100097.41;5009588;28;20083;-71
2022/02/11 13:07:37;;;;;;;;;;;;;;;9.00;52.64;100100.88;5009112;28;20025;-71
2022/02/11 13:10:04;;;;;;;5.68;1.48;;;;;;;8.00;54.00;100077.09;5010244;28;19913;-70
2022/02/11 13:12:38;;;;;;;4.63;1.30;;;;;;;7.34;56.65;100089.09;5006904;28;20029;-72
2022/02/11 13:15:06;;;;;;;4.18;1.50;;;;;;;8.06;55.52;100079.16;5009292;28;20030;-72
2022/02/11 13:17:31;;;;;;;4.20;1.73;;;;;;;8.17;54.88;100088.84;5013609;28;20029;-72
2022/02/11 13:20:15;;;;;;;5.00;1.70;;;;;;;8.19;55.36;100085.00;5012160;28;20472;-72
2022/02/11 13:22:43;;;;;;;5.22;1.65;;;;;;;10.20;49.98;100069.06;5011290;28;20033;-73
2022/02/11 13:25:10;;;;;;;6.60;1.52;;;;;;;11.55;47.06;100083.59;5010686;28;20105;-73
2022/02/11 13:27:49;;;;;;;3.92;1.48;;;;;;;10.33;49.11;100102.91;5011926;28;20033;-73
2022/02/11 13:30:23;;;;;;;5.07;1.45;;;;;;;10.27;49.44;100078.22;5012186;28;20064;-73
2022/02/11 13:32:49;;;;;;;6.70;1.67;;;;;;;12.07;45.37;100080.19;5004958;28;20484;-74
2022/02/11 13:35:15;;;;;;;6.53;1.60;;;;;;;11.79;45.62;100090.72;5014250;28;20099;-80
2022/02/11 13:37:40;;;;;;;6.00;1.48;;;;;;;11.46;46.61;100095.47;5004891;28;20488;-65
2022/02/11 13:40:30;;;;;;;5.47;1.65;;;;;;;11.57;47.39;100091.53;4998915;28;20022;-65
2022/02/11 13:43:04;;;;;;;4.25;1.50;;;;;;;11.13;49.44;100105.59;4994684;28;20073;-76
2022/02/11 13:45:49;;;;;;;6.72;1.75;;;;;;;9.47;50.94;100123.03;5008451;28;20029;-70
2022/02/11 13:48:16;;;;;;;6.18;1.80;;;;;;;8.82;53.03;100107.38;5003836;28;20111;-73
2022/02/11 13:51:01;;;;;;;3.33;1.42;;;;;;;8.15;54.26;100118.69;5010088;28;20030;-72
2022/02/11 13:53:34;;;;;;;6.35;1.92;;;;;;;7.98;56.01;100117.66;5013844;28;20036;-73
2022/02/11 13:56:01;;;;;;;4.63;1.98;;;;;;;8.12;56.07;100105.50;5013635;28;20091;-73
2022/02/11 13:58:27;;;;;;;9.73;2.08;;;;;;;8.42;56.10;100111.50;5005403;28;20026;-74
2022/02/11 14:00:53;;;;;;;8.48;1.58;;;;;;;8.77;53.93;100103.28;5007310;28;20033;-74
2022/02/11 14:03:23;;;;;;;6.32;1.38;;;;;;;8.17;55.49;100121.19;5014509;28;20052;-74
2022/02/11 14:05:51;;;;;;;4.10;1.65;;;;;;;8.93;54.34;100121.47;5031090;28;20034;-74
2022/02/11 14:08:19;;;;;;;4.97;1.85;;;;;;;8.94;53.12;100130.41;5001868;28;20498;-74
2022/02/11 14:10:44;;;;;;;9.23;1.70;;;;;;;8.05;55.07;100126.84;5007670;28;20113;-73
2022/02/11 14:13:11;;;;;;;4.90;1.70;;;;;;;7.72;55.88;100120.28;5005939;28;20120;-73
2022/02/11 14:15:37;;;;;;;8.77;2.00;;;;;;;7.52;57.45;100137.56;4998653;28;20037;-74
2022/02/11 14:18:04;;;;;;;8.57;2.03;;;;;;;6.94;58.13;100146.75;5008379;28;20069;-74
2022/02/11 14:20:30;;;;;;;3.03;1.73;;;;;;;6.78;60.03;100140.16;5005613;28;20104;-74
2022/02/11 14:22:55;;;;;;;5.03;1.92;;;;;;;6.61;60.75;100157.06;5006389;28;20427;-74
2022/02/11 14:25:20;;;;;;;7.32;1.70;;;;;;;6.17;60.57;100148.59;5008847;28;20488;-73
2022/02/11 14:27:46;;;;;;;5.95;2.47;;;;;;;5.86;61.52;100140.63;5007663;28;20032;-71
2022/02/11 14:30:12;;;;;;;4.45;1.90;;;;;;;5.92;62.32;100172.34;4994694;28;20022;-71
2022/02/11 14:32:38;;;;;;;5.82;1.45;;;;;;;5.77;63.39;100146.03;5002801;28;20040;-68
2022/02/11 14:35:04;;;;;;;5.72;1.88;;;;;;;5.99;63.37;100174.47;5012258;28;20033;-68
2022/02/11 14:37:29;;;;;;;8.25;2.40;;;;;;;6.10;61.97;100180.59;5002048;28;20069;-68
2022/02/11 14:39:54;;;;;;;7.50;2.42;;;;;;;5.93;61.53;100160.63;5004565;28;20507;-68
2022/02/11 14:42:20;;;;;;;8.30;1.80;;;;;;;6.03;61.40;100187.50;5006349;28;20026;-67
2022/02/11 14:44:45;;;;;;;6.40;1.85;;;;;;;6.01;60.54;100180.56;5000156;28;20065;-68
2022/02/11 14:47:13;;;;;;;4.63;1.63;;;;;;;5.96;61.50;100188.19;5001883;28;20026;-68
2022/02/11 14:49:39;;;;;;;11.32;2.30;;;;;;;5.92;61.80;100184.88;5004837;28;20014;-68
2022/02/11 14:52:07;;;;;;;7.75;1.88;;;;;;;5.82;62.59;100202.84;5001723;28;20033;-67
2022/02/11 14:54:35;;;;;;;4.85;1.20;;;;;;;5.39;73.01;100215.56;5001055;28;20021;-67
2022/02/11 14:57:00;;;;;;;3.20;1.00;;;;;;;4.55;78.87;100222.84;5004891;28;20124;-68
2022/02/11 14:59:27;;;;;;;2.55;1.13;;;;;;;3.80;84.95;100229.97;4997815;28;20024;-68
2022/02/11 15:01:53;;;;;;;4.63;1.17;;;;;;;3.51;88.24;100226.94;5000356;28;20394;-68
2022/02/11 15:04:19;;;;;;;2.88;1.00;;;;;;;3.41;90.74;100228.69;5000328;28;20088;-67
2022/02/11 15:06:47;;;;;;;4.93;0.80;;;;;;;3.37;92.41;100235.22;5001976;28;20034;-68
2022/02/11 15:09:13;;;;;;;2.55;0.88;;;;;;;3.34;92.33;100230.13;4997028;28;20045;-68
2022/02/11 15:11:38;;;;;;;4.15;0.88;;;;;;;3.32;92.15;100226.72;5008169;28;20399;-68
2022/02/11 15:14:03;;;;;;;2.30;0.73;;;;;;;3.35;92.51;100226.47;5004616;28;20069;-68
2022/02/11 15:16:29;;;;;;;1.65;0.65;;;;;;;3.46;93.36;100221.13;5006115;28;20542;-68
2022/02/11 15:18:54;;;;;;;2.72;0.70;;;;;;;3.57;94.39;100234.50;4999538;28;20553;-68
2022/02/11 15:21:21;;;;;;;2.25;0.93;;;;;;;3.63;94.21;100241.16;5000658;28;20455;-68
2022/02/11 15:23:47;;;;;;;1.70;0.80;;;;;;;3.63;94.52;100242.00;5005133;28;20026;-68
2022/02/11 15:26:15;;;;;;;1.52;0.70;;;;;;;3.68;94.99;100250.53;5009666;28;20065;-68
2022/02/11 15:28:40;;;;;;;3.47;0.82;;;;;;;3.74;94.80;100249.19;5008625;28;20029;-68
2022/02/11 15:31:12;;;;;;;3.42;1.25;;;;;;;3.57;94.26;100252.38;5009456;28;20084;-69
2022/02/11 15:33:40;;;;;;;5.63;1.20;;;;;;;3.51;95.46;100251.00;4992496;28;20030;-68
2022/02/11 15:36:07;;;;;;;3.22;1.25;;;;;;;3.37;96.03;100230.72;4994679;28;20022;-68
2022/02/11 15:38:33;;;;;;;1.75;1.00;;;;;;;3.38;96.51;100259.19;4996934;28;20750;-68
2022/02/11 15:40:58;;;;;;;3.90;1.30;;;;;;;3.32;97.24;100254.31;4996068;28;20042;-69